Wild Orchid 1 — 9HB2165 — position and weather

sailwx.info

Track history (hours):
 
Tides and Currents Weather Stations Pressure Air Temp Water Temp Dewpoint Dewpoint Depression Visibility Wind Speed Wind Dir Waves Ship Positions

Wild Orchid 1

Last reported at 2017-Sep-29 18:14 UTC. Time now 2017-Nov-21 12:14 UTC.
Position N 43°33' E 007°04'.
Warning: this ship's position is 52 days out of date.

Length 45 m; draft 2.8 m.

Type: Pleasure craft. MMSI: 215586000.

Date/timePositionNaut miles runAvg speedWind from/ knotsBaromVisibWave heightAir tempDewpointWater temp
2017-Sep-29 18:14N 43°33' E 007°04'1 5.6
2017-Sep-29 18:00N 43°32' E 007°03'0 0.0
2017-Sep-29 17:30N 43°32' E 007°03'0 0.0
2017-Sep-29 17:00N 43°32' E 007°03'0 0.0
2017-Sep-29 16:30N 43°32' E 007°03'0 0.0
2017-Sep-29 16:00N 43°32' E 007°03'0 0.0
2017-Sep-29 15:30N 43°32' E 007°03'0 0.0
2017-Sep-29 15:00N 43°32' E 007°03'0 0.0
2017-Sep-29 14:30N 43°32' E 007°03'0 0.0
2017-Sep-29 14:00N 43°32' E 007°03'0 0.0
2017-Sep-29 13:30N 43°32' E 007°03'0 0.0
2017-Sep-29 13:00N 43°32' E 007°03'0 0.0
2017-Sep-29 12:30N 43°32' E 007°03'0 0.0
2017-Sep-29 11:51N 43°32' E 007°03'0 0.0
2017-Sep-29 11:26N 43°32' E 007°03'3 6.2
2017-Sep-29 11:00N 43°29' E 007°02'4 0.2
2017-Sep-28 10:52N 43°27' E 006°58'513.3
2017-Sep-28 10:30N 43°30' E 007°03'3 0.1
2017-Sep-26 21:21N 43°32' E 007°05'3 9.1
2017-Sep-26 21:00N 43°30' E 007°02'2 4.0
2017-Sep-26 20:24N 43°32' E 007°01'0 0.0
2017-Sep-26 20:00N 43°32' E 007°01'0 0.0
2017-Sep-26 19:30N 43°32' E 007°01'0 0.0
2017-Sep-26 19:00N 43°32' E 007°01'0 0.0
2017-Sep-26 18:30N 43°32' E 007°01'0 0.0
2017-Sep-26 17:57N 43°32' E 007°01'1 1.5
2017-Sep-26 17:30N 43°32' E 007°01'  
Track history (hours):
 
Tides and Currents Weather Stations Pressure Air Temp Water Temp Dewpoint Dewpoint Depression Visibility Wind Speed Wind Dir Waves Ship Positions

Wild Orchid 1

Last reported at 2017-Sep-29 18:14 UTC. Time now 2017-Nov-21 12:14 UTC.
Position N 43°33' E 007°04'.
Warning: this ship's position is 52 days out of date.

Length 45 m; draft 2.8 m.

Type: Pleasure craft. MMSI: 215586000.

Date/timePositionNaut miles runAvg speedWind from/ knotsBaromVisibWave heightAir tempDewpointWater temp
2017-Sep-29 18:14N 43°33' E 007°04'1 5.6
2017-Sep-29 18:00N 43°32' E 007°03'0 0.0
2017-Sep-29 17:30N 43°32' E 007°03'0 0.0
2017-Sep-29 17:00N 43°32' E 007°03'0 0.0
2017-Sep-29 16:30N 43°32' E 007°03'0 0.0
2017-Sep-29 16:00N 43°32' E 007°03'0 0.0
2017-Sep-29 15:30N 43°32' E 007°03'0 0.0
2017-Sep-29 15:00N 43°32' E 007°03'0 0.0
2017-Sep-29 14:30N 43°32' E 007°03'0 0.0
2017-Sep-29 14:00N 43°32' E 007°03'0 0.0
2017-Sep-29 13:30N 43°32' E 007°03'0 0.0
2017-Sep-29 13:00N 43°32' E 007°03'0 0.0
2017-Sep-29 12:30N 43°32' E 007°03'0 0.0
2017-Sep-29 11:51N 43°32' E 007°03'0 0.0
2017-Sep-29 11:26N 43°32' E 007°03'3 6.2
2017-Sep-29 11:00N 43°29' E 007°02'4 0.2
2017-Sep-28 10:52N 43°27' E 006°58'513.3
2017-Sep-28 10:30N 43°30' E 007°03'3 0.1
2017-Sep-26 21:21N 43°32' E 007°05'3 9.1
2017-Sep-26 21:00N 43°30' E 007°02'2 4.0
2017-Sep-26 20:24N 43°32' E 007°01'0 0.0
2017-Sep-26 20:00N 43°32' E 007°01'0 0.0
2017-Sep-26 19:30N 43°32' E 007°01'0 0.0
2017-Sep-26 19:00N 43°32' E 007°01'0 0.0
2017-Sep-26 18:30N 43°32' E 007°01'0 0.0
2017-Sep-26 17:57N 43°32' E 007°01'1 1.5
2017-Sep-26 17:30N 43°32' E 007°01'  

Dump ship's entire track history